Donnelly, ID (83615)

8:29 PM MDT on July 30, 2016 (GMT -0600)
Cascade Lake | | Change Station

Elev 4820 ft 44.71 °N, 116.10 °W | Updated 0 second ago

Clear
Clear
83.5 °F
Feels Like 81 °F
N
0.0
Wind Variable Wind from WSW
Gusts 0.0 mph

Today
High -- | Low -- °F
--% Chance of Precip.
Yesterday
High -- | Low -- °F
Precip. -- in
Pressure 29.75 in
Visibility 10.0 miles
Clouds Clear
Heat Index 81 °F
Dew Point 44 °F
Humidity 25%
Rainfall 0.00 in
Snow Depth Not available.
6:28 AM 9:12 PM
Waning Crescent, 9% visible
METAR KMYL 310151Z AUTO 26005KT 10SM CLR 29/M04 A2991 RMK AO2 SLP075 T02891044
Pressure 29.75 in
Visibility 10.0 miles
Clouds Clear
Heat Index 81 °F
Dew Point 44 °F
Humidity 25%
Rainfall 0.00 in
Snow Depth Not available.
6:28 AM 9:12 PM
Waning Crescent, 9% visible
METAR KMYL 310151Z AUTO 26005KT 10SM CLR 29/M04 A2991 RMK AO2 SLP075 T02891044

10-Day Weather Forecast

Almanac

Astronomy

Jul. 30, 2016 Rise Set
Actual Time
Civil Twilight
Nautical Twilight
Astronomical Twilight
Moon
Length of Visible Light
Length of Day
Tomorrow will be .
, % of the Moon is Illuminated

Today's Extremes

State Highs State Lows

Community

WunderPhotos

Upload Photos

1,928,713 photos uploaded!

WunderBlog® & News

Nearby

Air Quality

  Air Quality AQ Index Pollutant
Not available.

Snow Depth

Station Depth Elevation

Earthquake Activity

City Distance Mag. Time & Date
Minimum magnitude displayed is 2.5.

Coastal Water Temperatures

Place Temperature

Stations

Nearby Weather Stations

Station Location Temp. Windchill Dew Point Humidity Wind Precip. Elev Updated Type
                   

Watches & Warnings

There are currently no watches in effect.